sensor_id;sensor_type;location;lat;lon;timestamp;temperature;humidity
20068;DHT22;10194;50.824;7.134;2023-03-30T00:00:57;11.80;99.90
20068;DHT22;10194;50.824;7.134;2023-03-30T00:03:23;11.70;99.90
20068;DHT22;10194;50.824;7.134;2023-03-30T00:05:52;11.70;99.90
20068;DHT22;10194;50.824;7.134;2023-03-30T00:08:22;11.70;99.90
20068;DHT22;10194;50.824;7.134;2023-03-30T00:11:09;11.80;99.90
20068;DHT22;10194;50.824;7.134;2023-03-30T00:13:36;11.80;99.90
20068;DHT22;10194;50.824;7.134;2023-03-30T00:16:03;11.70;99.90
20068;DHT22;10194;50.824;7.134;2023-03-30T00:18:30;11.60;99.90
20068;DHT22;10194;50.824;7.134;2023-03-30T00:20:56;11.50;99.90
20068;DHT22;10194;50.824;7.134;2023-03-30T00:23:22;11.50;99.90
20068;DHT22;10194;50.824;7.134;2023-03-30T00:25:48;11.40;99.90
20068;DHT22;10194;50.824;7.134;2023-03-30T00:28:14;11.30;99.90
20068;DHT22;10194;50.824;7.134;2023-03-30T00:30:40;11.30;99.90
20068;DHT22;10194;50.824;7.134;2023-03-30T00:33:06;11.50;99.90
20068;DHT22;10194;50.824;7.134;2023-03-30T00:35:32;11.50;99.90
20068;DHT22;10194;50.824;7.134;2023-03-30T00:37:59;11.50;99.90
20068;DHT22;10194;50.824;7.134;2023-03-30T00:40:26;11.60;99.90
20068;DHT22;10194;50.824;7.134;2023-03-30T00:43:04;11.60;99.90
20068;DHT22;10194;50.824;7.134;2023-03-30T00:45:32;11.70;99.90
20068;DHT22;10194;50.824;7.134;2023-03-30T00:50:52;12.00;99.90
20068;DHT22;10194;50.824;7.134;2023-03-30T00:53:54;12.00;99.90
20068;DHT22;10194;50.824;7.134;2023-03-30T00:56:26;12.20;99.90
20068;DHT22;10194;50.824;7.134;2023-03-30T00:58:54;12.20;99.90
20068;DHT22;10194;50.824;7.134;2023-03-30T01:01:20;12.60;99.90
20068;DHT22;10194;50.824;7.134;2023-03-30T01:03:59;12.50;99.90
20068;DHT22;10194;50.824;7.134;2023-03-30T01:06:26;12.40;99.90
20068;DHT22;10194;50.824;7.134;2023-03-30T01:08:55;12.50;99.90
20068;DHT22;10194;50.824;7.134;2023-03-30T01:11:23;12.30;99.90
20068;DHT22;10194;50.824;7.134;2023-03-30T01:13:57;12.30;99.90
20068;DHT22;10194;50.824;7.134;2023-03-30T01:28:30;12.60;99.90
20068;DHT22;10194;50.824;7.134;2023-03-30T01:37:24;12.50;99.90
20068;DHT22;10194;50.824;7.134;2023-03-30T01:40:19;12.50;99.90
20068;DHT22;10194;50.824;7.134;2023-03-30T01:43:19;12.50;99.90
20068;DHT22;10194;50.824;7.134;2023-03-30T01:45:56;12.70;99.90
20068;DHT22;10194;50.824;7.134;2023-03-30T01:48:42;12.80;99.90
20068;DHT22;10194;50.824;7.134;2023-03-30T01:54:35;12.90;99.90
20068;DHT22;10194;50.824;7.134;2023-03-30T01:57:08;13.00;99.90
20068;DHT22;10194;50.824;7.134;2023-03-30T02:00:04;13.10;99.90
20068;DHT22;10194;50.824;7.134;2023-03-30T02:02:38;13.20;99.90
20068;DHT22;10194;50.824;7.134;2023-03-30T02:05:07;13.20;99.90
20068;DHT22;10194;50.824;7.134;2023-03-30T02:07:36;13.20;99.90
20068;DHT22;10194;50.824;7.134;2023-03-30T02:10:05;13.10;99.90
20068;DHT22;10194;50.824;7.134;2023-03-30T02:12:33;13.10;99.90
20068;DHT22;10194;50.824;7.134;2023-03-30T02:15:06;13.20;99.90
20068;DHT22;10194;50.824;7.134;2023-03-30T02:17:33;13.40;99.90
20068;DHT22;10194;50.824;7.134;2023-03-30T02:20:01;13.30;99.90
20068;DHT22;10194;50.824;7.134;2023-03-30T02:22:28;13.30;99.90
20068;DHT22;10194;50.824;7.134;2023-03-30T02:24:55;13.30;99.90
20068;DHT22;10194;50.824;7.134;2023-03-30T02:27:25;13.10;99.90
20068;DHT22;10194;50.824;7.134;2023-03-30T02:29:52;13.10;99.90
20068;DHT22;10194;50.824;7.134;2023-03-30T02:32:35;12.90;99.90
20068;DHT22;10194;50.824;7.134;2023-03-30T02:44:44;13.20;99.90
20068;DHT22;10194;50.824;7.134;2023-03-30T02:47:41;13.30;99.90
20068;DHT22;10194;50.824;7.134;2023-03-30T02:50:21;13.50;99.90
20068;DHT22;10194;50.824;7.134;2023-03-30T02:56:13;13.60;99.90
20068;DHT22;10194;50.824;7.134;2023-03-30T02:58:48;13.50;99.90
20068;DHT22;10194;50.824;7.134;2023-03-30T03:01:27;13.40;99.90
20068;DHT22;10194;50.824;7.134;2023-03-30T03:03:59;13.40;99.90
20068;DHT22;10194;50.824;7.134;2023-03-30T03:06:27;13.40;99.90
20068;DHT22;10194;50.824;7.134;2023-03-30T03:08:54;13.40;99.90
20068;DHT22;10194;50.824;7.134;2023-03-30T03:11:21;13.40;99.90
20068;DHT22;10194;50.824;7.134;2023-03-30T03:13:47;13.40;99.90
20068;DHT22;10194;50.824;7.134;2023-03-30T03:16:13;13.50;99.90
20068;DHT22;10194;50.824;7.134;2023-03-30T03:18:39;13.50;99.90
20068;DHT22;10194;50.824;7.134;2023-03-30T03:21:11;13.60;99.90
20068;DHT22;10194;50.824;7.134;2023-03-30T03:23:38;13.70;99.90
20068;DHT22;10194;50.824;7.134;2023-03-30T03:26:05;13.80;99.90
20068;DHT22;10194;50.824;7.134;2023-03-30T03:28:32;14.00;99.90
20068;DHT22;10194;50.824;7.134;2023-03-30T03:30:58;14.10;99.90
20068;DHT22;10194;50.824;7.134;2023-03-30T03:33:25;14.00;99.90
20068;DHT22;10194;50.824;7.134;2023-03-30T03:35:52;14.00;99.90
20068;DHT22;10194;50.824;7.134;2023-03-30T03:38:19;14.10;99.90
20068;DHT22;10194;50.824;7.134;2023-03-30T03:40:54;14.00;99.90
20068;DHT22;10194;50.824;7.134;2023-03-30T03:43:22;13.90;99.90
20068;DHT22;10194;50.824;7.134;2023-03-30T03:45:49;13.90;99.90
20068;DHT22;10194;50.824;7.134;2023-03-30T03:48:17;13.90;99.90
20068;DHT22;10194;50.824;7.134;2023-03-30T03:50:44;13.90;99.90
20068;DHT22;10194;50.824;7.134;2023-03-30T03:53:17;13.90;99.90
20068;DHT22;10194;50.824;7.134;2023-03-30T03:55:44;13.90;99.90
20068;DHT22;10194;50.824;7.134;2023-03-30T03:58:11;13.90;99.90
20068;DHT22;10194;50.824;7.134;2023-03-30T04:00:38;13.90;99.90
20068;DHT22;10194;50.824;7.134;2023-03-30T04:03:04;13.90;99.90
20068;DHT22;10194;50.824;7.134;2023-03-30T04:05:30;13.90;99.90
20068;DHT22;10194;50.824;7.134;2023-03-30T04:07:56;13.90;99.90
20068;DHT22;10194;50.824;7.134;2023-03-30T04:10:25;13.80;99.90
20068;DHT22;10194;50.824;7.134;2023-03-30T04:12:57;13.80;99.90
20068;DHT22;10194;50.824;7.134;2023-03-30T04:15:23;13.80;99.90
20068;DHT22;10194;50.824;7.134;2023-03-30T04:17:49;13.90;99.90
20068;DHT22;10194;50.824;7.134;2023-03-30T04:20:25;13.80;99.90
20068;DHT22;10194;50.824;7.134;2023-03-30T04:22:52;13.60;99.90
20068;DHT22;10194;50.824;7.134;2023-03-30T04:25:21;13.70;99.90
20068;DHT22;10194;50.824;7.134;2023-03-30T04:27:52;13.60;99.90
20068;DHT22;10194;50.824;7.134;2023-03-30T04:30:18;13.40;99.90
20068;DHT22;10194;50.824;7.134;2023-03-30T04:32:45;13.40;99.90
20068;DHT22;10194;50.824;7.134;2023-03-30T04:35:19;13.30;99.90
20068;DHT22;10194;50.824;7.134;2023-03-30T04:37:45;13.30;99.90
20068;DHT22;10194;50.824;7.134;2023-03-30T04:40:16;13.30;99.90
20068;DHT22;10194;50.824;7.134;2023-03-30T04:42:42;13.30;99.90
20068;DHT22;10194;50.824;7.134;2023-03-30T04:45:14;13.30;99.90
20068;DHT22;10194;50.824;7.134;2023-03-30T04:47:43;13.30;99.90
20068;DHT22;10194;50.824;7.134;2023-03-30T04:50:10;13.20;99.90
20068;DHT22;10194;50.824;7.134;2023-03-30T04:52:36;13.10;99.90
20068;DHT22;10194;50.824;7.134;2023-03-30T04:55:02;13.00;99.90
20068;DHT22;10194;50.824;7.134;2023-03-30T04:57:28;13.00;99.90
20068;DHT22;10194;50.824;7.134;2023-03-30T04:59:54;13.00;99.90
20068;DHT22;10194;50.824;7.134;2023-03-30T05:02:20;13.00;99.90
20068;DHT22;10194;50.824;7.134;2023-03-30T05:04:46;13.00;99.90
20068;DHT22;10194;50.824;7.134;2023-03-30T05:07:12;13.00;99.90
20068;DHT22;10194;50.824;7.134;2023-03-30T05:09:38;13.10;99.90
20068;DHT22;10194;50.824;7.134;2023-03-30T05:12:05;13.10;99.90
20068;DHT22;10194;50.824;7.134;2023-03-30T05:14:30;13.10;99.90
20068;DHT22;10194;50.824;7.134;2023-03-30T05:16:56;13.10;99.90
20068;DHT22;10194;50.824;7.134;2023-03-30T05:19:23;13.10;99.90
20068;DHT22;10194;50.824;7.134;2023-03-30T05:21:49;13.10;99.90
20068;DHT22;10194;50.824;7.134;2023-03-30T05:24:15;13.20;99.90
20068;DHT22;10194;50.824;7.134;2023-03-30T05:26:41;13.20;99.90
20068;DHT22;10194;50.824;7.134;2023-03-30T05:29:07;13.30;99.90
20068;DHT22;10194;50.824;7.134;2023-03-30T05:31:33;13.30;99.90
20068;DHT22;10194;50.824;7.134;2023-03-30T05:33:59;13.30;99.90
20068;DHT22;10194;50.824;7.134;2023-03-30T05:36:24;13.30;99.90
20068;DHT22;10194;50.824;7.134;2023-03-30T05:38:50;13.40;99.90
20068;DHT22;10194;50.824;7.134;2023-03-30T05:41:16;13.30;99.90
20068;DHT22;10194;50.824;7.134;2023-03-30T05:43:42;13.30;99.90
20068;DHT22;10194;50.824;7.134;2023-03-30T05:46:08;13.40;99.90
20068;DHT22;10194;50.824;7.134;2023-03-30T05:48:34;13.40;99.90
20068;DHT22;10194;50.824;7.134;2023-03-30T05:51:00;13.40;99.90
20068;DHT22;10194;50.824;7.134;2023-03-30T05:53:26;13.50;99.90
20068;DHT22;10194;50.824;7.134;2023-03-30T05:55:52;13.50;99.90
20068;DHT22;10194;50.824;7.134;2023-03-30T05:58:17;13.50;99.90
20068;DHT22;10194;50.824;7.134;2023-03-30T06:00:44;13.50;99.90
20068;DHT22;10194;50.824;7.134;2023-03-30T06:03:13;13.60;99.90
20068;DHT22;10194;50.824;7.134;2023-03-30T06:05:39;13.60;99.90
20068;DHT22;10194;50.824;7.134;2023-03-30T06:08:08;13.60;99.90
20068;DHT22;10194;50.824;7.134;2023-03-30T06:10:35;13.60;99.90
20068;DHT22;10194;50.824;7.134;2023-03-30T06:13:02;13.60;99.90
20068;DHT22;10194;50.824;7.134;2023-03-30T06:15:28;13.70;99.90
20068;DHT22;10194;50.824;7.134;2023-03-30T06:17:54;13.80;99.90
20068;DHT22;10194;50.824;7.134;2023-03-30T06:20:20;13.80;99.90
20068;DHT22;10194;50.824;7.134;2023-03-30T06:22:47;13.80;99.90
20068;DHT22;10194;50.824;7.134;2023-03-30T06:25:13;13.80;99.90
20068;DHT22;10194;50.824;7.134;2023-03-30T06:27:40;13.80;99.90
20068;DHT22;10194;50.824;7.134;2023-03-30T06:30:07;13.80;99.90
20068;DHT22;10194;50.824;7.134;2023-03-30T06:32:34;13.80;99.90
20068;DHT22;10194;50.824;7.134;2023-03-30T06:35:00;13.90;99.90
20068;DHT22;10194;50.824;7.134;2023-03-30T06:37:30;13.90;99.90
20068;DHT22;10194;50.824;7.134;2023-03-30T06:39:56;13.90;99.90
20068;DHT22;10194;50.824;7.134;2023-03-30T06:42:22;13.90;99.90
20068;DHT22;10194;50.824;7.134;2023-03-30T06:44:51;13.90;99.90
20068;DHT22;10194;50.824;7.134;2023-03-30T06:47:17;14.00;99.90
20068;DHT22;10194;50.824;7.134;2023-03-30T06:49:44;14.00;99.90
20068;DHT22;10194;50.824;7.134;2023-03-30T06:52:10;14.00;99.90
20068;DHT22;10194;50.824;7.134;2023-03-30T06:54:37;14.10;99.90
20068;DHT22;10194;50.824;7.134;2023-03-30T06:57:03;14.10;99.90
20068;DHT22;10194;50.824;7.134;2023-03-30T06:59:29;14.20;99.90
20068;DHT22;10194;50.824;7.134;2023-03-30T07:01:56;14.30;99.90
20068;DHT22;10194;50.824;7.134;2023-03-30T07:04:22;14.40;99.90
20068;DHT22;10194;50.824;7.134;2023-03-30T07:06:47;14.40;99.90
20068;DHT22;10194;50.824;7.134;2023-03-30T07:09:13;14.40;99.90
20068;DHT22;10194;50.824;7.134;2023-03-30T07:11:39;14.40;99.90
20068;DHT22;10194;50.824;7.134;2023-03-30T07:14:05;14.40;99.90
20068;DHT22;10194;50.824;7.134;2023-03-30T07:16:34;14.40;99.90
20068;DHT22;10194;50.824;7.134;2023-03-30T07:19:00;14.40;99.90
20068;DHT22;10194;50.824;7.134;2023-03-30T07:21:26;14.40;99.90
20068;DHT22;10194;50.824;7.134;2023-03-30T07:23:51;14.50;99.90
20068;DHT22;10194;50.824;7.134;2023-03-30T07:26:17;14.50;99.90
20068;DHT22;10194;50.824;7.134;2023-03-30T07:28:43;14.60;99.90
20068;DHT22;10194;50.824;7.134;2023-03-30T07:31:12;14.70;99.90
20068;DHT22;10194;50.824;7.134;2023-03-30T07:33:39;15.00;99.90
20068;DHT22;10194;50.824;7.134;2023-03-30T07:36:05;15.10;99.90
20068;DHT22;10194;50.824;7.134;2023-03-30T07:38:32;15.20;99.90
20068;DHT22;10194;50.824;7.134;2023-03-30T07:40:58;15.30;99.90
20068;DHT22;10194;50.824;7.134;2023-03-30T07:43:24;15.60;99.90
20068;DHT22;10194;50.824;7.134;2023-03-30T07:45:51;15.70;99.90
20068;DHT22;10194;50.824;7.134;2023-03-30T07:48:18;15.80;99.90
20068;DHT22;10194;50.824;7.134;2023-03-30T07:50:43;16.00;99.90
20068;DHT22;10194;50.824;7.134;2023-03-30T07:53:09;16.00;99.90
20068;DHT22;10194;50.824;7.134;2023-03-30T07:55:35;16.10;99.90
20068;DHT22;10194;50.824;7.134;2023-03-30T07:58:02;16.10;99.90
20068;DHT22;10194;50.824;7.134;2023-03-30T08:00:28;16.10;99.90
20068;DHT22;10194;50.824;7.134;2023-03-30T08:02:55;16.00;99.90
20068;DHT22;10194;50.824;7.134;2023-03-30T08:05:21;16.10;99.90
20068;DHT22;10194;50.824;7.134;2023-03-30T08:07:47;16.10;99.90
20068;DHT22;10194;50.824;7.134;2023-03-30T08:10:13;16.20;99.90
20068;DHT22;10194;50.824;7.134;2023-03-30T08:12:39;16.40;99.90
20068;DHT22;10194;50.824;7.134;2023-03-30T08:15:07;16.70;99.90
20068;DHT22;10194;50.824;7.134;2023-03-30T08:17:33;16.80;99.90
20068;DHT22;10194;50.824;7.134;2023-03-30T08:19:59;16.70;99.90
20068;DHT22;10194;50.824;7.134;2023-03-30T08:22:26;16.60;99.90
20068;DHT22;10194;50.824;7.134;2023-03-30T08:24:51;16.50;99.90
20068;DHT22;10194;50.824;7.134;2023-03-30T08:27:17;16.50;99.90
20068;DHT22;10194;50.824;7.134;2023-03-30T08:29:43;16.50;99.90
20068;DHT22;10194;50.824;7.134;2023-03-30T08:32:09;16.50;99.90
20068;DHT22;10194;50.824;7.134;2023-03-30T08:34:35;16.40;99.90
20068;DHT22;10194;50.824;7.134;2023-03-30T08:37:00;16.30;99.90
20068;DHT22;10194;50.824;7.134;2023-03-30T08:39:28;16.30;99.90
20068;DHT22;10194;50.824;7.134;2023-03-30T08:44:43;16.00;99.90
20068;DHT22;10194;50.824;7.134;2023-03-30T08:47:13;15.90;99.90
20068;DHT22;10194;50.824;7.134;2023-03-30T08:49:46;15.80;99.90
20068;DHT22;10194;50.824;7.134;2023-03-30T08:52:25;15.80;99.90
20068;DHT22;10194;50.824;7.134;2023-03-30T08:54:51;16.00;99.90
20068;DHT22;10194;50.824;7.134;2023-03-30T09:00:19;16.20;99.90
20068;DHT22;10194;50.824;7.134;2023-03-30T09:03:14;16.20;99.90
20068;DHT22;10194;50.824;7.134;2023-03-30T09:08:51;16.30;99.90
20068;DHT22;10194;50.824;7.134;2023-03-30T09:11:28;16.40;99.90
20068;DHT22;10194;50.824;7.134;2023-03-30T09:14:03;16.50;99.90
20068;DHT22;10194;50.824;7.134;2023-03-30T09:16:51;16.40;99.90
20068;DHT22;10194;50.824;7.134;2023-03-30T09:19:32;16.50;99.90
20068;DHT22;10194;50.824;7.134;2023-03-30T09:22:01;16.50;99.90
20068;DHT22;10194;50.824;7.134;2023-03-30T09:24:30;16.30;99.90
20068;DHT22;10194;50.824;7.134;2023-03-30T09:27:08;16.20;99.90
20068;DHT22;10194;50.824;7.134;2023-03-30T09:29:49;16.20;99.90
20068;DHT22;10194;50.824;7.134;2023-03-30T09:32:31;16.20;99.90
20068;DHT22;10194;50.824;7.134;2023-03-30T09:35:39;16.30;99.90
20068;DHT22;10194;50.824;7.134;2023-03-30T09:38:12;16.30;99.90
20068;DHT22;10194;50.824;7.134;2023-03-30T09:41:17;16.20;99.90
20068;DHT22;10194;50.824;7.134;2023-03-30T09:44:04;16.40;99.90
20068;DHT22;10194;50.824;7.134;2023-03-30T09:46:37;16.40;99.90
20068;DHT22;10194;50.824;7.134;2023-03-30T09:49:14;16.20;99.90
20068;DHT22;10194;50.824;7.134;2023-03-30T09:52:18;16.30;99.90
20068;DHT22;10194;50.824;7.134;2023-03-30T09:54:45;16.30;99.90
20068;DHT22;10194;50.824;7.134;2023-03-30T09:57:25;16.30;99.90
20068;DHT22;10194;50.824;7.134;2023-03-30T09:59:52;15.20;99.90
20068;DHT22;10194;50.824;7.134;2023-03-30T10:02:23;13.30;99.90
20068;DHT22;10194;50.824;7.134;2023-03-30T10:07:35;11.70;99.90
20068;DHT22;10194;50.824;7.134;2023-03-30T10:10:28;11.70;99.90
20068;DHT22;10194;50.824;7.134;2023-03-30T10:13:16;11.50;99.90
20068;DHT22;10194;50.824;7.134;2023-03-30T10:15:45;11.20;99.90
20068;DHT22;10194;50.824;7.134;2023-03-30T10:18:45;11.20;99.90
20068;DHT22;10194;50.824;7.134;2023-03-30T10:23:38;11.30;99.90
20068;DHT22;10194;50.824;7.134;2023-03-30T10:26:17;11.60;99.90
20068;DHT22;10194;50.824;7.134;2023-03-30T10:28:53;11.80;99.90
20068;DHT22;10194;50.824;7.134;2023-03-30T10:31:22;11.90;99.90
20068;DHT22;10194;50.824;7.134;2023-03-30T10:33:55;11.90;99.90
20068;DHT22;10194;50.824;7.134;2023-03-30T10:36:28;12.00;99.90
20068;DHT22;10194;50.824;7.134;2023-03-30T10:39:30;12.10;99.90
20068;DHT22;10194;50.824;7.134;2023-03-30T10:42:00;12.20;99.90
20068;DHT22;10194;50.824;7.134;2023-03-30T10:44:42;12.20;99.90
20068;DHT22;10194;50.824;7.134;2023-03-30T10:53:07;13.10;99.90
20068;DHT22;10194;50.824;7.134;2023-03-30T10:55:51;13.30;99.90
20068;DHT22;10194;50.824;7.134;2023-03-30T10:58:37;13.60;99.90
20068;DHT22;10194;50.824;7.134;2023-03-30T11:04:41;14.40;99.90
20068;DHT22;10194;50.824;7.134;2023-03-30T11:07:23;14.30;99.90
20068;DHT22;10194;50.824;7.134;2023-03-30T11:09:58;14.40;99.90
20068;DHT22;10194;50.824;7.134;2023-03-30T11:12:34;14.20;99.90
20068;DHT22;10194;50.824;7.134;2023-03-30T11:15:21;14.20;99.90
20068;DHT22;10194;50.824;7.134;2023-03-30T11:21:20;14.40;99.90
20068;DHT22;10194;50.824;7.134;2023-03-30T11:23:52;14.60;99.90
20068;DHT22;10194;50.824;7.134;2023-03-30T11:26:38;14.50;99.90
20068;DHT22;10194;50.824;7.134;2023-03-30T11:38:16;14.60;99.90
20068;DHT22;10194;50.824;7.134;2023-03-30T11:40:52;14.60;99.90
20068;DHT22;10194;50.824;7.134;2023-03-30T11:43:21;14.30;99.90
20068;DHT22;10194;50.824;7.134;2023-03-30T12:00:30;14.70;99.90
20068;DHT22;10194;50.824;7.134;2023-03-30T12:03:32;14.80;99.90
20068;DHT22;10194;50.824;7.134;2023-03-30T12:09:13;15.20;99.90
20068;DHT22;10194;50.824;7.134;2023-03-30T12:12:08;15.30;99.90
20068;DHT22;10194;50.824;7.134;2023-03-30T12:15:24;15.20;99.90
20068;DHT22;10194;50.824;7.134;2023-03-30T12:21:38;15.30;99.90
20068;DHT22;10194;50.824;7.134;2023-03-30T12:24:27;15.30;99.90
20068;DHT22;10194;50.824;7.134;2023-03-30T12:27:26;15.40;99.90
20068;DHT22;10194;50.824;7.134;2023-03-30T12:29:53;15.60;99.90
20068;DHT22;10194;50.824;7.134;2023-03-30T12:32:37;15.70;99.90
20068;DHT22;10194;50.824;7.134;2023-03-30T12:38:18;16.10;99.90
20068;DHT22;10194;50.824;7.134;2023-03-30T12:40:53;16.20;99.90
20068;DHT22;10194;50.824;7.134;2023-03-30T12:43:41;16.40;99.90
20068;DHT22;10194;50.824;7.134;2023-03-30T12:53:31;16.80;99.90
20068;DHT22;10194;50.824;7.134;2023-03-30T12:56:13;17.10;99.90
20068;DHT22;10194;50.824;7.134;2023-03-30T12:59:26;17.50;99.90
20068;DHT22;10194;50.824;7.134;2023-03-30T13:05:37;17.70;99.90
20068;DHT22;10194;50.824;7.134;2023-03-30T13:08:19;17.50;99.90
20068;DHT22;10194;50.824;7.134;2023-03-30T13:10:49;17.60;99.90
20068;DHT22;10194;50.824;7.134;2023-03-30T13:19:25;17.20;99.90
20068;DHT22;10194;50.824;7.134;2023-03-30T13:29:41;16.40;99.90
20068;DHT22;10194;50.824;7.134;2023-03-30T13:44:04;12.80;99.90
20068;DHT22;10194;50.824;7.134;2023-03-30T13:47:01;12.50;99.90
20068;DHT22;10194;50.824;7.134;2023-03-30T13:50:00;12.20;99.90
20068;DHT22;10194;50.824;7.134;2023-03-30T13:52:40;12.20;99.90
20068;DHT22;10194;50.824;7.134;2023-03-30T13:55:36;12.10;99.90
20068;DHT22;10194;50.824;7.134;2023-03-30T13:58:16;12.10;99.90
20068;DHT22;10194;50.824;7.134;2023-03-30T14:03:40;12.00;99.90
20068;DHT22;10194;50.824;7.134;2023-03-30T14:08:45;12.10;99.90
20068;DHT22;10194;50.824;7.134;2023-03-30T14:11:26;12.40;99.90
20068;DHT22;10194;50.824;7.134;2023-03-30T14:13:57;12.80;99.90
20068;DHT22;10194;50.824;7.134;2023-03-30T14:16:25;13.10;99.90
20068;DHT22;10194;50.824;7.134;2023-03-30T14:19:01;13.30;99.90
20068;DHT22;10194;50.824;7.134;2023-03-30T14:21:50;13.40;99.90
20068;DHT22;10194;50.824;7.134;2023-03-30T14:24:27;13.50;99.90
20068;DHT22;10194;50.824;7.134;2023-03-30T14:30:00;13.70;99.90
20068;DHT22;10194;50.824;7.134;2023-03-30T14:32:25;13.80;99.90
20068;DHT22;10194;50.824;7.134;2023-03-30T14:34:52;13.90;99.90
20068;DHT22;10194;50.824;7.134;2023-03-30T14:37:21;13.90;99.90
20068;DHT22;10194;50.824;7.134;2023-03-30T14:39:51;14.10;99.90
20068;DHT22;10194;50.824;7.134;2023-03-30T14:42:19;14.20;99.90
20068;DHT22;10194;50.824;7.134;2023-03-30T14:44:48;14.40;99.90
20068;DHT22;10194;50.824;7.134;2023-03-30T14:47:24;14.50;99.90
20068;DHT22;10194;50.824;7.134;2023-03-30T14:49:56;14.60;99.90
20068;DHT22;10194;50.824;7.134;2023-03-30T14:52:31;14.80;99.90
20068;DHT22;10194;50.824;7.134;2023-03-30T14:54:59;14.90;99.90
20068;DHT22;10194;50.824;7.134;2023-03-30T14:57:26;15.10;99.90
20068;DHT22;10194;50.824;7.134;2023-03-30T15:00:00;15.00;99.90
20068;DHT22;10194;50.824;7.134;2023-03-30T15:02:51;15.00;99.90
20068;DHT22;10194;50.824;7.134;2023-03-30T15:05:21;14.90;99.90
20068;DHT22;10194;50.824;7.134;2023-03-30T15:07:49;15.00;99.90
20068;DHT22;10194;50.824;7.134;2023-03-30T15:10:31;15.10;99.90
20068;DHT22;10194;50.824;7.134;2023-03-30T15:13:01;15.30;99.90
20068;DHT22;10194;50.824;7.134;2023-03-30T15:15:30;15.40;99.90
20068;DHT22;10194;50.824;7.134;2023-03-30T15:17:56;15.50;99.90
20068;DHT22;10194;50.824;7.134;2023-03-30T15:20:24;15.50;99.90
20068;DHT22;10194;50.824;7.134;2023-03-30T15:22:52;15.50;99.90
20068;DHT22;10194;50.824;7.134;2023-03-30T15:25:21;15.60;99.90
20068;DHT22;10194;50.824;7.134;2023-03-30T15:28:04;15.60;99.90
20068;DHT22;10194;50.824;7.134;2023-03-30T15:30:53;15.70;99.90
20068;DHT22;10194;50.824;7.134;2023-03-30T15:33:47;15.80;99.90
20068;DHT22;10194;50.824;7.134;2023-03-30T15:36:21;15.90;99.90
20068;DHT22;10194;50.824;7.134;2023-03-30T15:38:52;15.90;99.90
20068;DHT22;10194;50.824;7.134;2023-03-30T15:41:41;15.90;99.90
20068;DHT22;10194;50.824;7.134;2023-03-30T15:44:16;16.00;99.90
20068;DHT22;10194;50.824;7.134;2023-03-30T15:46:44;16.10;99.90
20068;DHT22;10194;50.824;7.134;2023-03-30T15:49:17;16.10;99.90
20068;DHT22;10194;50.824;7.134;2023-03-30T15:51:50;16.00;99.90
20068;DHT22;10194;50.824;7.134;2023-03-30T15:54:32;15.90;99.90
20068;DHT22;10194;50.824;7.134;2023-03-30T15:57:11;15.90;99.90
20068;DHT22;10194;50.824;7.134;2023-03-30T15:59:46;15.80;99.90
20068;DHT22;10194;50.824;7.134;2023-03-30T16:02:24;15.70;99.90
20068;DHT22;10194;50.824;7.134;2023-03-30T16:05:02;15.70;99.90
20068;DHT22;10194;50.824;7.134;2023-03-30T16:07:30;15.70;99.90
20068;DHT22;10194;50.824;7.134;2023-03-30T16:09:56;15.70;99.90
20068;DHT22;10194;50.824;7.134;2023-03-30T16:12:27;15.80;99.90
20068;DHT22;10194;50.824;7.134;2023-03-30T16:14:54;15.90;99.90
20068;DHT22;10194;50.824;7.134;2023-03-30T16:17:21;16.00;99.90
20068;DHT22;10194;50.824;7.134;2023-03-30T16:19:47;16.10;99.90
20068;DHT22;10194;50.824;7.134;2023-03-30T16:22:14;16.00;99.90
20068;DHT22;10194;50.824;7.134;2023-03-30T16:24:41;16.00;99.90
20068;DHT22;10194;50.824;7.134;2023-03-30T16:27:10;15.80;99.90
20068;DHT22;10194;50.824;7.134;2023-03-30T16:29:36;15.70;99.90
20068;DHT22;10194;50.824;7.134;2023-03-30T16:32:02;15.60;99.90
20068;DHT22;10194;50.824;7.134;2023-03-30T16:34:27;15.60;99.90
20068;DHT22;10194;50.824;7.134;2023-03-30T16:36:53;15.70;99.90
20068;DHT22;10194;50.824;7.134;2023-03-30T16:39:25;15.70;99.90
20068;DHT22;10194;50.824;7.134;2023-03-30T16:41:52;15.60;99.90
20068;DHT22;10194;50.824;7.134;2023-03-30T16:44:20;15.50;99.90
20068;DHT22;10194;50.824;7.134;2023-03-30T16:46:47;15.40;99.90
20068;DHT22;10194;50.824;7.134;2023-03-30T16:49:24;15.30;99.90
20068;DHT22;10194;50.824;7.134;2023-03-30T16:51:51;15.20;99.90
20068;DHT22;10194;50.824;7.134;2023-03-30T16:54:18;15.30;99.90
20068;DHT22;10194;50.824;7.134;2023-03-30T16:56:44;15.20;99.90
20068;DHT22;10194;50.824;7.134;2023-03-30T16:59:22;15.30;99.90
20068;DHT22;10194;50.824;7.134;2023-03-30T17:01:49;15.30;99.90
20068;DHT22;10194;50.824;7.134;2023-03-30T17:04:16;15.20;99.90
20068;DHT22;10194;50.824;7.134;2023-03-30T17:06:42;15.20;99.90
20068;DHT22;10194;50.824;7.134;2023-03-30T17:09:16;15.00;99.90
20068;DHT22;10194;50.824;7.134;2023-03-30T17:11:44;14.90;99.90
20068;DHT22;10194;50.824;7.134;2023-03-30T17:14:11;14.90;99.90
20068;DHT22;10194;50.824;7.134;2023-03-30T17:16:37;14.70;99.90
20068;DHT22;10194;50.824;7.134;2023-03-30T17:19:03;14.70;99.90
20068;DHT22;10194;50.824;7.134;2023-03-30T17:21:29;14.60;99.90
20068;DHT22;10194;50.824;7.134;2023-03-30T17:23:54;14.60;99.90
20068;DHT22;10194;50.824;7.134;2023-03-30T17:26:20;14.50;99.90
20068;DHT22;10194;50.824;7.134;2023-03-30T17:28:47;14.40;99.90
20068;DHT22;10194;50.824;7.134;2023-03-30T17:31:18;14.40;99.90
20068;DHT22;10194;50.824;7.134;2023-03-30T17:33:46;14.30;99.90
20068;DHT22;10194;50.824;7.134;2023-03-30T17:36:21;14.30;99.90
20068;DHT22;10194;50.824;7.134;2023-03-30T17:38:49;14.20;99.90
20068;DHT22;10194;50.824;7.134;2023-03-30T17:41:16;14.10;99.90
20068;DHT22;10194;50.824;7.134;2023-03-30T17:43:44;14.00;99.90
20068;DHT22;10194;50.824;7.134;2023-03-30T17:46:13;14.00;99.90
20068;DHT22;10194;50.824;7.134;2023-03-30T17:48:40;13.90;99.90
20068;DHT22;10194;50.824;7.134;2023-03-30T17:51:06;13.80;99.90
20068;DHT22;10194;50.824;7.134;2023-03-30T17:53:32;13.70;99.90
20068;DHT22;10194;50.824;7.134;2023-03-30T17:55:58;13.60;99.90
20068;DHT22;10194;50.824;7.134;2023-03-30T17:58:27;13.70;99.90
20068;DHT22;10194;50.824;7.134;2023-03-30T18:00:58;13.60;99.90
20068;DHT22;10194;50.824;7.134;2023-03-30T18:03:25;13.60;99.90
20068;DHT22;10194;50.824;7.134;2023-03-30T18:05:53;13.50;99.90
20068;DHT22;10194;50.824;7.134;2023-03-30T18:08:20;13.40;99.90
20068;DHT22;10194;50.824;7.134;2023-03-30T18:10:50;13.40;99.90
20068;DHT22;10194;50.824;7.134;2023-03-30T18:13:18;13.30;99.90
20068;DHT22;10194;50.824;7.134;2023-03-30T18:15:46;13.30;99.90
20068;DHT22;10194;50.824;7.134;2023-03-30T18:18:16;13.20;99.90
20068;DHT22;10194;50.824;7.134;2023-03-30T18:20:51;13.10;99.90